createdAt,value
2022-10-31T00:01:26.846Z,101801.41
2022-10-31T00:03:54.028Z,101797.00
2022-10-31T00:06:22.516Z,101803.13
2022-10-31T00:09:02.547Z,101797.28
2022-10-31T00:11:30.219Z,101797.63
2022-10-31T00:14:00.153Z,101811.19
2022-10-31T00:16:27.535Z,101810.69
2022-10-31T00:19:00.207Z,101816.97
2022-10-31T00:21:27.799Z,101812.97
2022-10-31T00:23:54.987Z,101807.97
2022-10-31T00:26:22.271Z,101811.03
2022-10-31T00:28:49.725Z,101809.06
2022-10-31T00:31:17.045Z,101802.25
2022-10-31T00:33:45.078Z,101804.19
2022-10-31T00:36:15.174Z,101805.31
2022-10-31T00:38:43.582Z,101806.88
2022-10-31T00:41:12.305Z,101805.41
2022-10-31T00:43:42.151Z,101797.31
2022-10-31T00:46:10.339Z,101802.63
2022-10-31T00:48:37.548Z,101804.88
2022-10-31T00:51:05.860Z,101801.78
2022-10-31T00:53:33.324Z,101806.63
2022-10-31T00:56:00.632Z,101796.25
2022-10-31T00:58:27.815Z,101805.81
2022-10-31T01:00:58.412Z,101801.13
2022-10-31T01:03:27.909Z,101801.75
2022-10-31T01:06:03.277Z,101805.13
2022-10-31T01:08:33.652Z,101802.69
2022-10-31T01:11:24.181Z,101801.41
2022-10-31T01:13:53.630Z,101803.44
2022-10-31T01:16:23.488Z,101802.94
2022-10-31T01:18:51.861Z,101807.13
2022-10-31T01:21:25.204Z,101798.25
2022-10-31T01:23:55.295Z,101803.13
2022-10-31T01:26:25.225Z,101796.00
2022-10-31T01:29:07.180Z,101791.16
2022-10-31T01:31:38.728Z,101795.50
2022-10-31T01:34:06.540Z,101793.38
2022-10-31T01:36:38.885Z,101788.53
2022-10-31T01:39:09.052Z,101793.53
2022-10-31T01:41:39.631Z,101787.22
2022-10-31T01:44:14.656Z,101785.91
2022-10-31T01:46:44.733Z,101782.03
2022-10-31T01:49:35.548Z,101785.41
2022-10-31T01:52:11.060Z,101778.81
2022-10-31T01:54:44.516Z,101780.41
2022-10-31T01:57:15.874Z,101784.59
2022-10-31T01:59:48.669Z,101782.19
2022-10-31T02:02:17.364Z,101778.44
2022-10-31T02:04:48.680Z,101777.13
2022-10-31T02:07:28.884Z,101777.41
2022-10-31T02:10:01.666Z,101767.06
2022-10-31T02:12:31.370Z,101771.44
2022-10-31T02:15:01.647Z,101767.38
2022-10-31T02:17:31.165Z,101767.06
2022-10-31T02:20:11.407Z,101762.06
2022-10-31T02:22:55.339Z,101765.97
2022-10-31T02:25:26.396Z,101762.69
2022-10-31T02:28:29.124Z,101757.53
2022-10-31T02:31:14.913Z,101759.22
2022-10-31T02:33:56.125Z,101749.38
2022-10-31T02:36:59.245Z,101747.44
2022-10-31T02:39:31.196Z,101750.19
2022-10-31T02:42:16.114Z,101748.06
2022-10-31T02:44:52.770Z,101749.81
2022-10-31T02:47:26.985Z,101756.72
2022-10-31T02:50:19.131Z,101747.69
2022-10-31T02:52:52.945Z,101745.75
2022-10-31T02:55:26.060Z,101754.00
2022-10-31T02:58:16.568Z,101764.69
2022-10-31T03:01:34.301Z,101759.81
2022-10-31T03:04:34.895Z,101767.72
2022-10-31T03:07:17.334Z,101767.41
2022-10-31T03:09:44.365Z,101769.03
2022-10-31T03:12:19.647Z,101768.50
2022-10-31T03:15:05.341Z,101769.66
2022-10-31T03:17:39.502Z,101765.28
2022-10-31T03:20:10.683Z,101770.28
2022-10-31T03:22:42.948Z,101767.16
2022-10-31T03:25:10.927Z,101772.63
2022-10-31T03:27:40.621Z,101776.09
2022-10-31T03:30:09.125Z,101778.50
2022-10-31T03:32:55.610Z,101778.50
2022-10-31T03:35:27.053Z,101780.44
2022-10-31T03:37:55.519Z,101776.56
2022-10-31T03:40:28.111Z,101784.19
2022-10-31T03:43:04.888Z,101789.56
2022-10-31T03:45:37.038Z,101794.91
2022-10-31T03:48:05.024Z,101783.94
2022-10-31T03:50:51.000Z,101778.66
2022-10-31T03:53:27.891Z,101779.28
2022-10-31T03:56:09.064Z,101780.59
2022-10-31T03:58:43.683Z,101782.53
2022-10-31T04:01:15.284Z,101781.31
2022-10-31T04:03:43.916Z,101789.47
2022-10-31T04:06:16.065Z,101786.25
2022-10-31T04:08:49.280Z,101785.94
2022-10-31T04:11:22.256Z,101780.75
2022-10-31T04:14:08.273Z,101784.00
2022-10-31T04:16:36.839Z,101789.66
2022-10-31T04:19:04.282Z,101788.25
2022-10-31T04:21:32.108Z,101794.44
2022-10-31T04:23:59.349Z,101794.44
2022-10-31T04:26:28.752Z,101793.91
2022-10-31T04:28:59.691Z,101788.13
2022-10-31T04:31:28.742Z,101795.25
2022-10-31T04:33:56.159Z,101788.94
2022-10-31T04:36:23.790Z,101791.00
2022-10-31T04:38:50.841Z,101793.34
2022-10-31T04:41:32.441Z,101787.16
2022-10-31T04:44:02.611Z,101797.94
2022-10-31T04:46:29.758Z,101790.66
2022-10-31T04:48:58.387Z,101791.75
2022-10-31T04:51:25.537Z,101793.22
2022-10-31T04:53:53.101Z,101790.25
2022-10-31T04:56:29.572Z,101790.56
2022-10-31T04:58:59.964Z,101791.19
2022-10-31T05:01:30.558Z,101794.88
2022-10-31T05:03:59.892Z,101799.84
2022-10-31T05:06:27.267Z,101807.25
2022-10-31T05:08:55.092Z,101801.25
2022-10-31T05:11:25.300Z,101810.09
2022-10-31T05:13:56.005Z,101809.59
2022-10-31T05:16:41.902Z,101815.38
2022-10-31T05:19:37.899Z,101810.69
2022-10-31T05:22:25.302Z,101817.03
2022-10-31T05:24:52.481Z,101817.31
2022-10-31T05:27:19.612Z,101817.84
2022-10-31T05:29:46.772Z,101815.69
2022-10-31T05:32:14.448Z,101817.47
2022-10-31T05:35:00.155Z,101819.72
2022-10-31T05:37:47.756Z,101818.09
2022-10-31T05:40:17.191Z,101816.56
2022-10-31T05:42:45.251Z,101816.91
2022-10-31T05:45:16.473Z,101821.34
2022-10-31T05:48:02.642Z,101822.75
2022-10-31T05:51:05.580Z,101823.53
2022-10-31T05:53:32.682Z,101829.84
2022-10-31T05:56:00.089Z,101830.06
2022-10-31T05:58:27.238Z,101824.00
2022-10-31T06:01:06.962Z,101831.38
2022-10-31T06:03:34.414Z,101825.84
2022-10-31T06:06:04.399Z,101822.56
2022-10-31T06:08:36.938Z,101830.09
2022-10-31T06:11:07.700Z,101826.38
2022-10-31T06:13:53.678Z,101829.56
2022-10-31T06:16:25.222Z,101828.31
2022-10-31T06:18:54.903Z,101832.06
2022-10-31T06:21:22.684Z,101833.69
2022-10-31T06:23:52.120Z,101835.00
2022-10-31T06:26:37.671Z,101844.59
2022-10-31T06:29:07.164Z,101845.19
2022-10-31T06:31:56.425Z,101841.31
2022-10-31T06:34:23.821Z,101850.75
2022-10-31T06:36:50.955Z,101855.44
2022-10-31T06:39:21.857Z,101852.94
2022-10-31T06:41:49.587Z,101858.03
2022-10-31T06:44:19.991Z,101859.78
2022-10-31T06:46:56.690Z,101860.94
2022-10-31T06:49:43.531Z,101865.53
2022-10-31T06:52:16.408Z,101861.50
2022-10-31T06:54:43.538Z,101870.38
2022-10-31T06:57:10.636Z,101874.09
2022-10-31T06:59:39.421Z,101870.78
2022-10-31T07:02:12.729Z,101869.44
2022-10-31T07:04:42.693Z,101876.63
2022-10-31T07:07:13.325Z,101879.16
2022-10-31T07:09:40.466Z,101871.69
2022-10-31T07:12:10.037Z,101875.72
2022-10-31T07:14:40.734Z,101879.78
2022-10-31T07:17:07.966Z,101887.59
2022-10-31T07:19:39.679Z,101881.13
2022-10-31T07:22:06.951Z,101884.56
2022-10-31T07:24:35.330Z,101884.38
2022-10-31T07:27:21.239Z,101889.47
2022-10-31T07:29:49.292Z,101888.16
2022-10-31T07:32:17.532Z,101894.03
2022-10-31T07:34:52.088Z,101885.41
2022-10-31T07:37:24.307Z,101889.56
2022-10-31T07:39:54.561Z,101889.84
2022-10-31T07:42:21.739Z,101886.34
2022-10-31T07:44:52.649Z,101892.84
2022-10-31T07:47:50.916Z,101893.41
2022-10-31T07:50:36.668Z,101891.94
2022-10-31T07:53:22.141Z,101890.31
2022-10-31T07:56:01.816Z,101884.09
2022-10-31T07:58:30.700Z,101880.09
2022-10-31T08:00:59.805Z,101893.00
2022-10-31T08:03:35.124Z,101890.16
2022-10-31T08:06:20.900Z,101887.34
2022-10-31T08:09:11.540Z,101885.75
2022-10-31T08:11:39.612Z,101885.97
2022-10-31T08:14:07.544Z,101886.63
2022-10-31T08:16:35.233Z,101894.69
2022-10-31T08:19:04.882Z,101887.06
2022-10-31T08:21:37.666Z,101883.34
2022-10-31T08:24:06.252Z,101890.03
2022-10-31T08:26:34.002Z,101893.56
2022-10-31T08:29:01.564Z,101894.28
2022-10-31T08:31:34.479Z,101888.94
2022-10-31T08:34:41.888Z,101893.31
2022-10-31T08:37:27.468Z,101892.09
2022-10-31T08:39:56.163Z,101887.06
2022-10-31T08:42:23.253Z,101895.94
2022-10-31T08:44:50.559Z,101888.69
2022-10-31T08:47:21.526Z,101883.94
2022-10-31T08:49:48.915Z,101888.50
2022-10-31T08:52:17.162Z,101886.44
2022-10-31T08:54:47.185Z,101889.06
2022-10-31T08:57:33.005Z,101890.63
2022-10-31T09:00:03.265Z,101885.25
2022-10-31T09:02:47.543Z,101888.19
2022-10-31T09:05:15.233Z,101889.50
2022-10-31T09:07:42.255Z,101890.63
2022-10-31T09:10:09.594Z,101886.22
2022-10-31T09:12:38.765Z,101885.50
2022-10-31T09:15:07.642Z,101891.75
2022-10-31T09:17:39.951Z,101887.84
2022-10-31T09:20:22.857Z,101891.22
2022-10-31T09:23:03.069Z,101889.38
2022-10-31T09:25:32.115Z,101879.94
2022-10-31T09:28:20.049Z,101878.69
2022-10-31T09:30:49.494Z,101881.94
2022-10-31T09:33:23.769Z,101875.09
2022-10-31T09:36:08.697Z,101875.63
2022-10-31T09:38:40.831Z,101869.88
2022-10-31T09:41:26.507Z,101870.41
2022-10-31T09:43:53.768Z,101874.78
2022-10-31T09:46:49.668Z,101867.28
2022-10-31T09:49:34.285Z,101869.75
2022-10-31T09:52:18.435Z,101869.53
2022-10-31T09:54:55.068Z,101870.09
2022-10-31T09:57:32.192Z,101861.41
2022-10-31T10:00:00.652Z,101853.88
2022-10-31T10:02:44.439Z,101854.25
2022-10-31T10:05:16.187Z,101847.81
2022-10-31T10:08:04.730Z,101849.56
2022-10-31T10:11:01.094Z,101843.94
2022-10-31T10:14:36.346Z,101846.09
2022-10-31T10:17:03.414Z,101849.06
2022-10-31T10:19:33.582Z,101840.94
2022-10-31T10:22:13.449Z,101836.03
2022-10-31T10:25:10.989Z,101837.13
2022-10-31T10:27:38.629Z,101834.84
2022-10-31T10:30:20.462Z,101830.09
2022-10-31T10:33:00.676Z,101830.66
2022-10-31T10:35:35.100Z,101826.94
2022-10-31T10:38:11.038Z,101830.09
2022-10-31T10:40:39.438Z,101824.63
2022-10-31T10:43:24.964Z,101826.06
2022-10-31T10:46:28.345Z,101821.19
2022-10-31T10:49:08.360Z,101813.78
2022-10-31T10:52:13.320Z,101818.38
2022-10-31T10:54:48.046Z,101817.06
2022-10-31T10:57:35.920Z,101813.94
2022-10-31T11:00:23.906Z,101819.84
2022-10-31T11:02:52.362Z,101815.00
2022-10-31T11:05:38.500Z,101810.22
2022-10-31T11:08:07.289Z,101816.09
2022-10-31T11:10:35.161Z,101818.16
2022-10-31T11:13:11.709Z,101813.50
2022-10-31T11:15:52.655Z,101807.38
2022-10-31T11:21:01.880Z,101809.09
2022-10-31T11:23:30.358Z,101802.09
2022-10-31T11:26:04.961Z,101798.69
2022-10-31T11:28:36.047Z,101793.72
2022-10-31T11:31:14.711Z,101791.97
2022-10-31T11:33:49.406Z,101793.91
2022-10-31T11:36:24.555Z,101790.25
2022-10-31T11:38:53.014Z,101782.81
2022-10-31T11:41:27.966Z,101785.69
2022-10-31T11:43:57.688Z,101784.66
2022-10-31T11:46:39.608Z,101782.50
2022-10-31T11:49:19.112Z,101775.72
2022-10-31T11:51:54.379Z,101775.81
2022-10-31T11:54:48.881Z,101767.47
2022-10-31T11:57:30.931Z,101763.72
2022-10-31T12:00:03.132Z,101764.53
2022-10-31T12:02:39.674Z,101765.97
2022-10-31T12:05:34.254Z,101759.59
2022-10-31T12:08:04.507Z,101755.03
2022-10-31T12:10:50.334Z,101758.72
2022-10-31T12:13:20.935Z,101750.94
2022-10-31T12:15:57.498Z,101750.31
2022-10-31T12:18:49.725Z,101746.09
2022-10-31T12:21:35.293Z,101746.44
2022-10-31T12:24:24.254Z,101737.78
2022-10-31T12:27:22.463Z,101740.56
2022-10-31T12:30:22.303Z,101739.28
2022-10-31T12:33:10.179Z,101742.78
2022-10-31T12:38:18.087Z,101738.84
2022-10-31T12:41:00.528Z,101742.97
2022-10-31T12:44:06.042Z,101733.59
2022-10-31T12:46:42.382Z,101731.78
2022-10-31T12:49:46.676Z,101730.63
2022-10-31T12:52:44.823Z,101729.56
2022-10-31T12:55:47.387Z,101725.16
2022-10-31T12:58:14.730Z,101726.25
2022-10-31T13:00:47.496Z,101726.56
2022-10-31T13:03:30.152Z,101730.16
2022-10-31T13:06:03.767Z,101717.22
2022-10-31T13:08:47.095Z,101723.03
2022-10-31T13:11:17.278Z,101719.25
2022-10-31T13:13:47.118Z,101713.09
2022-10-31T13:16:14.272Z,101721.59
2022-10-31T13:18:47.884Z,101722.56
2022-10-31T13:21:50.321Z,101722.38
2022-10-31T13:24:28.340Z,101713.81
2022-10-31T13:26:59.817Z,101712.13
2022-10-31T13:29:38.169Z,101703.78
2022-10-31T13:32:07.004Z,101715.94
2022-10-31T13:34:41.541Z,101710.84
2022-10-31T13:37:36.903Z,101705.66
2022-10-31T13:40:08.990Z,101710.84
2022-10-31T13:42:37.093Z,101700.84
2022-10-31T13:45:16.209Z,101703.25
2022-10-31T13:47:44.515Z,101700.75
2022-10-31T13:50:22.780Z,101698.78
2022-10-31T13:52:50.024Z,101713.09
2022-10-31T13:55:45.454Z,101702.53
2022-10-31T13:58:23.881Z,101698.16
2022-10-31T14:01:06.359Z,101700.66
2022-10-31T14:04:04.640Z,101697.69
2022-10-31T14:06:26.317Z,101695.94
2022-10-31T14:08:53.861Z,101699.13
2022-10-31T14:11:33.012Z,101706.91
2022-10-31T14:14:03.635Z,101703.00
2022-10-31T14:16:33.149Z,101700.56
2022-10-31T14:19:02.772Z,101697.53
2022-10-31T14:21:32.563Z,101704.13
2022-10-31T14:23:59.662Z,101706.81
2022-10-31T14:26:29.887Z,101707.53
2022-10-31T14:29:04.519Z,101709.59
2022-10-31T14:31:44.651Z,101704.06
2022-10-31T14:34:36.713Z,101699.22
2022-10-31T14:37:54.973Z,101704.13
2022-10-31T14:41:13.317Z,101694.22
2022-10-31T14:43:48.012Z,101700.56
2022-10-31T14:46:44.315Z,101699.94
2022-10-31T14:49:20.265Z,101707.13
2022-10-31T14:51:49.911Z,101705.06
2022-10-31T14:54:24.620Z,101707.31
2022-10-31T14:56:56.533Z,101707.53
2022-10-31T14:59:34.476Z,101714.34
2022-10-31T15:02:22.495Z,101705.03
2022-10-31T15:04:52.428Z,101700.00
2022-10-31T15:07:27.660Z,101708.31
2022-10-31T15:10:28.479Z,101701.16
2022-10-31T15:12:55.850Z,101691.16
2022-10-31T15:15:30.031Z,101698.75
2022-10-31T15:18:00.735Z,101700.59
2022-10-31T15:20:31.731Z,101693.81
2022-10-31T15:23:01.024Z,101697.72
2022-10-31T15:25:34.055Z,101692.09
2022-10-31T15:28:01.634Z,101695.13
2022-10-31T15:30:30.962Z,101688.56
2022-10-31T15:32:59.370Z,101687.75
2022-10-31T15:35:32.000Z,101689.25
2022-10-31T15:38:01.793Z,101676.47
2022-10-31T15:40:29.666Z,101685.25
2022-10-31T15:43:03.253Z,101686.88
2022-10-31T15:45:31.726Z,101692.22
2022-10-31T15:48:02.619Z,101679.44
2022-10-31T15:50:39.098Z,101691.41
2022-10-31T15:53:18.630Z,101692.69
2022-10-31T15:55:58.907Z,101691.69
2022-10-31T15:58:27.265Z,101697.78
2022-10-31T16:01:07.153Z,101697.69
2022-10-31T16:03:35.777Z,101698.38
2022-10-31T16:06:06.375Z,101700.22
2022-10-31T16:08:37.147Z,101708.75
2022-10-31T16:11:15.974Z,101700.44
2022-10-31T16:13:59.833Z,101703.09
2022-10-31T16:16:35.261Z,101715.41
2022-10-31T16:19:05.594Z,101708.84
2022-10-31T16:21:37.452Z,101712.59
2022-10-31T16:24:15.078Z,101713.41
2022-10-31T16:26:42.829Z,101713.09
2022-10-31T16:29:42.671Z,101715.25
2022-10-31T16:32:26.124Z,101715.94
2022-10-31T16:35:11.213Z,101729.31
2022-10-31T16:37:42.269Z,101724.13
2022-10-31T16:40:17.087Z,101732.97
2022-10-31T16:42:46.028Z,101733.09
2022-10-31T16:45:24.723Z,101744.91
2022-10-31T16:47:52.770Z,101744.41
2022-10-31T16:50:23.854Z,101745.94
2022-10-31T16:53:08.771Z,101749.25
2022-10-31T16:55:47.419Z,101753.38
2022-10-31T16:58:24.303Z,101756.13
2022-10-31T17:00:52.807Z,101755.66
2022-10-31T17:03:20.768Z,101763.00
2022-10-31T17:05:48.037Z,101770.00
2022-10-31T17:08:15.351Z,101766.88
2022-10-31T17:10:44.963Z,101770.34
2022-10-31T17:13:18.040Z,101764.84
2022-10-31T17:15:48.496Z,101772.16
2022-10-31T17:18:16.971Z,101777.81
2022-10-31T17:20:45.182Z,101778.78
2022-10-31T17:23:14.532Z,101785.56
2022-10-31T17:25:42.130Z,101787.19
2022-10-31T17:28:13.874Z,101792.34
2022-10-31T17:30:42.579Z,101791.56
2022-10-31T17:33:13.059Z,101801.00
2022-10-31T17:35:40.436Z,101809.16
2022-10-31T17:38:07.623Z,101812.91
2022-10-31T17:40:34.841Z,101819.22
2022-10-31T17:43:03.982Z,101817.63
2022-10-31T17:45:32.758Z,101811.16
2022-10-31T17:48:00.179Z,101810.06
2022-10-31T17:50:27.811Z,101819.69
2022-10-31T17:52:54.871Z,101828.97
2022-10-31T17:55:22.046Z,101829.16
2022-10-31T17:57:49.355Z,101834.22
2022-10-31T18:00:22.781Z,101826.66
2022-10-31T18:02:50.411Z,101827.41
2022-10-31T18:05:18.002Z,101829.84
2022-10-31T18:07:45.707Z,101838.94
2022-10-31T18:10:12.831Z,101834.56
2022-10-31T18:12:44.130Z,101827.88
2022-10-31T18:15:15.053Z,101826.72
2022-10-31T18:17:44.097Z,101826.13
2022-10-31T18:20:12.885Z,101836.03
2022-10-31T18:22:40.063Z,101833.25
2022-10-31T18:25:08.845Z,101831.66
2022-10-31T18:27:36.885Z,101831.97
2022-10-31T18:30:04.428Z,101837.69
2022-10-31T18:32:31.542Z,101831.88
2022-10-31T18:34:58.528Z,101831.28
2022-10-31T18:37:25.644Z,101832.25
2022-10-31T18:39:52.636Z,101828.22
2022-10-31T18:42:19.815Z,101833.59
2022-10-31T18:44:46.844Z,101834.72
2022-10-31T18:47:13.988Z,101842.34
2022-10-31T18:49:43.591Z,101835.69
2022-10-31T18:52:11.836Z,101837.63
2022-10-31T18:54:38.967Z,101825.44
2022-10-31T18:57:08.856Z,101827.22
2022-10-31T18:59:38.416Z,101833.69
2022-10-31T19:02:05.834Z,101835.66
2022-10-31T19:04:33.118Z,101832.25
2022-10-31T19:07:00.818Z,101831.97
2022-10-31T19:09:30.959Z,101831.34
2022-10-31T19:11:58.038Z,101830.41
2022-10-31T19:14:25.167Z,101838.53
2022-10-31T19:16:53.013Z,101829.75
2022-10-31T19:19:21.159Z,101836.44
2022-10-31T19:21:48.418Z,101841.44
2022-10-31T19:24:15.941Z,101840.47
2022-10-31T19:26:43.206Z,101837.38
2022-10-31T19:29:10.823Z,101833.50
2022-10-31T19:31:37.929Z,101836.56
2022-10-31T19:34:05.303Z,101841.94
2022-10-31T19:36:32.663Z,101836.94
2022-10-31T19:39:00.060Z,101835.50
2022-10-31T19:41:31.928Z,101837.28
2022-10-31T19:44:00.481Z,101834.38
2022-10-31T19:46:51.707Z,101845.19
2022-10-31T19:49:15.581Z,101837.75
2022-10-31T19:51:45.679Z,101839.38
2022-10-31T19:54:15.016Z,101843.59
2022-10-31T19:56:42.252Z,101845.72
2022-10-31T19:59:09.555Z,101855.78
2022-10-31T20:01:36.945Z,101861.75
2022-10-31T20:04:04.236Z,101859.16
2022-10-31T20:06:36.794Z,101866.09
2022-10-31T20:09:08.118Z,101869.03
2022-10-31T20:11:37.323Z,101867.75
2022-10-31T20:14:04.882Z,101880.75
2022-10-31T20:16:32.820Z,101879.63
2022-10-31T20:19:00.265Z,101872.19
2022-10-31T20:21:29.358Z,101881.44
2022-10-31T20:24:01.596Z,101879.69
2022-10-31T20:26:30.382Z,101886.66
2022-10-31T20:28:58.583Z,101890.53
2022-10-31T20:31:30.222Z,101881.94
2022-10-31T20:33:57.680Z,101891.69
2022-10-31T20:36:25.507Z,101889.88
2022-10-31T20:38:52.920Z,101893.78
2022-10-31T20:41:20.202Z,101890.69
2022-10-31T20:43:47.983Z,101889.88
2022-10-31T20:46:17.489Z,101893.13
2022-10-31T20:48:48.728Z,101898.00
2022-10-31T20:51:27.681Z,101898.00
2022-10-31T20:53:56.828Z,101892.63
2022-10-31T20:56:26.038Z,101898.00
2022-10-31T20:58:55.491Z,101895.09
2022-10-31T21:01:31.334Z,101900.09
2022-10-31T21:03:59.198Z,101894.13
2022-10-31T21:06:27.327Z,101899.47
2022-10-31T21:08:55.209Z,101901.91
2022-10-31T21:11:24.765Z,101896.88
2022-10-31T21:13:52.614Z,101897.81
2022-10-31T21:16:25.427Z,101898.16
2022-10-31T21:18:53.875Z,101895.41
2022-10-31T21:21:29.124Z,101896.03
2022-10-31T21:24:12.453Z,101885.84
2022-10-31T21:26:42.835Z,101893.56
2022-10-31T21:29:11.894Z,101898.97
2022-10-31T21:31:39.747Z,101897.19
2022-10-31T21:34:07.097Z,101896.38
2022-10-31T21:36:35.023Z,101898.63
2022-10-31T21:39:03.154Z,101894.59
2022-10-31T21:41:30.285Z,101903.50
2022-10-31T21:43:57.762Z,101899.91
2022-10-31T21:46:30.643Z,101900.91
2022-10-31T21:48:58.584Z,101899.63
2022-10-31T21:51:33.442Z,101898.94
2022-10-31T21:54:19.342Z,101901.41
2022-10-31T21:56:46.518Z,101899.28
2022-10-31T21:59:13.932Z,101893.63
2022-10-31T22:01:41.546Z,101902.03
2022-10-31T22:04:09.008Z,101904.31
2022-10-31T22:06:36.652Z,101900.75
2022-10-31T22:09:06.205Z,101896.66
2022-10-31T22:11:34.551Z,101900.53
2022-10-31T22:14:02.209Z,101897.47
2022-10-31T22:16:30.873Z,101901.03
2022-10-31T22:18:59.580Z,101898.09
2022-10-31T22:21:28.494Z,101894.03
2022-10-31T22:24:01.913Z,101898.25
2022-10-31T22:26:32.930Z,101898.25
2022-10-31T22:29:03.291Z,101906.84
2022-10-31T22:31:31.943Z,101906.66
2022-10-31T22:33:59.763Z,101901.97
2022-10-31T22:36:29.322Z,101900.84
2022-10-31T22:38:57.298Z,101905.06
2022-10-31T22:41:29.740Z,101901.81
2022-10-31T22:43:57.804Z,101906.50
2022-10-31T22:46:30.048Z,101894.34
2022-10-31T22:49:03.055Z,101895.50
2022-10-31T22:51:33.211Z,101897.75
2022-10-31T22:54:00.635Z,101897.28
2022-10-31T22:56:30.477Z,101894.03
2022-10-31T22:58:58.988Z,101896.28
2022-10-31T23:01:32.276Z,101893.03
2022-10-31T23:04:00.553Z,101895.81
2022-10-31T23:06:32.807Z,101887.53
2022-10-31T23:09:01.724Z,101882.69
2022-10-31T23:11:37.467Z,101884.13
2022-10-31T23:14:16.536Z,101884.94
2022-10-31T23:16:46.821Z,101889.97
2022-10-31T23:19:22.166Z,101880.88
2022-10-31T23:21:56.674Z,101873.75
2022-10-31T23:24:32.119Z,101877.94
2022-10-31T23:27:09.940Z,101876.66
2022-10-31T23:29:54.485Z,101874.22
2022-10-31T23:32:30.890Z,101872.09
2022-10-31T23:35:03.175Z,101872.09
2022-10-31T23:37:32.183Z,101866.13
2022-10-31T23:39:59.838Z,101867.75
2022-10-31T23:42:27.984Z,101873.53
2022-10-31T23:44:55.481Z,101871.44
2022-10-31T23:47:22.825Z,101861.06
2022-10-31T23:49:51.027Z,101868.84
2022-10-31T23:52:18.462Z,101858.47
2022-10-31T23:54:45.604Z,101870.44
2022-10-31T23:57:13.960Z,101865.28
2022-10-31T23:59:41.167Z,101859.78
